Time;durP1;ratioP1;P1;durP2;ratioP2;P2;SDS_P1;SDS_P2;PMS_P1;PMS_P2;Temp;Humidity;BMP_temperature;BMP_pressure;BME280_temperature;BME280_humidity;BME280_pressure;Samples;Min_cycle;Max_cycle;Signal;HPM_P1;HPM_P2
2021/12/04 00:00:38;;;;;;;4.37;2.47;;;;;;;0.30;100.00;95550.13;5092682;28;20195;-84
2021/12/04 00:03:05;;;;;;;4.23;2.40;;;;;;;0.31;100.00;95530.53;5092122;28;20215;-83
2021/12/04 00:05:32;;;;;;;2.53;2.13;;;;;;;0.32;100.00;95533.00;5102440;28;20290;-83
2021/12/04 00:07:59;;;;;;;2.67;2.33;;;;;;;0.35;100.00;95522.00;5097271;28;20213;-83
2021/12/04 00:10:30;;;;;;;3.47;2.23;;;;;;;0.36;100.00;95517.50;5098909;28;20291;-83
2021/12/04 00:12:58;;;;;;;3.10;1.90;;;;;;;0.37;100.00;95500.56;5094056;28;20290;-83
2021/12/04 00:15:26;;;;;;;4.70;1.90;;;;;;;0.40;100.00;95502.88;5101592;28;20212;-83
2021/12/04 00:17:56;;;;;;;2.03;1.73;;;;;;;0.43;100.00;95491.03;5096575;28;20220;-83
2021/12/04 00:20:27;;;;;;;1.97;1.70;;;;;;;0.50;100.00;95498.06;5095717;28;20258;-84
2021/12/04 00:22:58;;;;;;;2.60;1.27;;;;;;;0.48;100.00;95480.66;5091762;28;20208;-84
2021/12/04 00:25:25;;;;;;;1.83;1.33;;;;;;;0.50;100.00;95466.19;5091090;28;20213;-84
2021/12/04 00:27:52;;;;;;;2.93;1.50;;;;;;;0.46;100.00;95461.44;5090360;28;20212;-83
2021/12/04 00:30:19;;;;;;;2.30;1.73;;;;;;;0.46;100.00;95464.91;5096102;28;20204;-83
2021/12/04 00:32:56;;;;;;;2.63;1.67;;;;;;;0.47;100.00;95460.44;5104450;28;20204;-83
2021/12/04 00:35:34;;;;;;;2.73;1.80;;;;;;;0.49;100.00;95456.59;5100399;28;20230;-83
2021/12/04 00:43:17;;;;;;;2.50;1.73;;;;;;;0.54;100.00;95464.78;5088645;28;20232;-83
2021/12/04 00:49:24;;;;;;;3.30;1.80;;;;;;;0.57;100.00;95453.81;5095984;28;20236;-83
2021/12/04 00:51:54;;;;;;;2.70;1.80;;;;;;;0.61;100.00;95447.09;5111334;28;20194;-83
2021/12/04 00:54:22;;;;;;;1.60;1.47;;;;;;;0.64;100.00;95456.50;5096812;28;20200;-83
2021/12/04 00:56:50;;;;;;;1.50;1.20;;;;;;;0.61;100.00;95457.72;5094097;28;20303;-84
2021/12/04 00:59:17;;;;;;;1.73;1.30;;;;;;;0.64;100.00;95451.19;5097040;28;20217;-84
2021/12/04 01:01:45;;;;;;;1.27;1.10;;;;;;;0.68;100.00;95453.28;5094130;28;20246;-83
2021/12/04 01:04:13;;;;;;;1.37;1.00;;;;;;;0.67;100.00;95451.66;5090077;28;20195;-84
2021/12/04 01:06:44;;;;;;;1.77;1.60;;;;;;;0.74;100.00;95462.34;5096361;28;20201;-83
2021/12/04 01:09:14;;;;;;;1.93;1.43;;;;;;;0.77;100.00;95457.44;5092356;28;20205;-84
2021/12/04 01:11:43;;;;;;;2.47;1.60;;;;;;;0.75;100.00;95458.66;5090227;28;20214;-83
2021/12/04 01:14:12;;;;;;;2.03;1.57;;;;;;;0.79;100.00;95464.41;5093266;28;20219;-84
2021/12/04 01:16:39;;;;;;;1.90;1.50;;;;;;;0.75;100.00;95461.31;5089428;28;20213;-84
2021/12/04 01:19:06;;;;;;;1.70;1.50;;;;;;;0.72;100.00;95454.53;5102668;28;20285;-84
2021/12/04 01:21:33;;;;;;;2.23;1.70;;;;;;;0.73;100.00;95461.50;5094111;28;20216;-84
2021/12/04 01:24:02;;;;;;;2.23;1.80;;;;;;;0.72;100.00;95465.16;5102149;28;20203;-83
2021/12/04 01:26:29;;;;;;;2.30;1.60;;;;;;;0.67;100.00;95453.47;5096636;28;20215;-84
2021/12/04 01:28:56;;;;;;;1.50;1.40;;;;;;;0.64;100.00;95452.03;5112518;27;20288;-83
2021/12/04 01:31:24;;;;;;;1.87;1.67;;;;;;;0.70;100.00;95451.25;5093488;28;20308;-83
2021/12/04 01:33:51;;;;;;;1.97;1.50;;;;;;;0.68;100.00;95431.22;5101362;28;20216;-83
2021/12/04 01:36:18;;;;;;;1.77;1.50;;;;;;;0.69;100.00;95427.53;5103703;28;20209;-83
2021/12/04 01:38:46;;;;;;;1.53;1.40;;;;;;;0.70;100.00;95429.16;5102893;28;20222;-83
2021/12/04 01:41:14;;;;;;;2.20;1.40;;;;;;;0.75;100.00;95426.78;5102646;28;20212;-83
2021/12/04 01:43:42;;;;;;;1.90;1.37;;;;;;;0.69;100.00;95420.38;5102560;28;20261;-83
2021/12/04 01:46:09;;;;;;;1.50;1.37;;;;;;;0.69;100.00;95432.84;5107333;28;20221;-83
2021/12/04 01:48:36;;;;;;;2.87;1.50;;;;;;;0.65;100.00;95427.09;5098091;28;20209;-83
2021/12/04 01:51:03;;;;;;;1.90;1.40;;;;;;;0.66;100.00;95428.75;5104937;28;20272;-81
2021/12/04 01:53:31;;;;;;;2.10;1.27;;;;;;;0.63;100.00;95444.25;5093644;28;20308;-83
2021/12/04 01:56:01;;;;;;;1.83;1.30;;;;;;;0.74;100.00;95439.25;5103546;28;20297;-84
2021/12/04 01:58:31;;;;;;;1.83;1.30;;;;;;;0.74;100.00;95430.44;5096638;28;20228;-83
2021/12/04 02:00:59;;;;;;;1.87;1.20;;;;;;;0.78;100.00;95442.31;5099510;28;20299;-83
2021/12/04 02:03:26;;;;;;;1.30;1.20;;;;;;;0.82;100.00;95440.13;5097453;28;20209;-83
2021/12/04 02:05:54;;;;;;;1.40;1.20;;;;;;;0.84;100.00;95435.44;5099876;28;20201;-83
2021/12/04 02:08:23;;;;;;;1.77;1.27;;;;;;;0.91;100.00;95428.34;5103676;28;20225;-83
2021/12/04 02:10:53;;;;;;;1.20;1.10;;;;;;;0.86;100.00;95412.94;5100829;28;20204;-83
2021/12/04 02:13:22;;;;;;;1.90;1.00;;;;;;;0.86;100.00;95412.94;5099501;28;20200;-83
2021/12/04 02:15:51;;;;;;;1.00;0.90;;;;;;;0.90;100.00;95408.09;5097619;28;20201;-83
2021/12/04 02:18:20;;;;;;;1.10;0.93;;;;;;;0.90;100.00;95416.06;5116067;27;20279;-84
2021/12/04 02:20:49;;;;;;;1.50;1.10;;;;;;;0.86;100.00;95396.19;5097800;28;20255;-83
2021/12/04 02:23:16;;;;;;;0.73;0.73;;;;;;;1.11;100.00;95378.75;5098932;28;20289;-83
2021/12/04 02:25:43;;;;;;;0.70;0.70;;;;;;;1.29;100.00;95399.53;5090192;28;20216;-84
2021/12/04 02:28:13;;;;;;;1.20;1.00;;;;;;;1.46;100.00;95409.66;5094619;28;20223;-83
2021/12/04 02:30:43;;;;;;;1.00;0.90;;;;;;;1.57;100.00;95387.00;5093423;28;20197;-83
2021/12/04 02:33:12;;;;;;;0.70;0.70;;;;;;;1.66;100.00;95388.47;5103820;28;20200;-84
2021/12/04 02:35:40;;;;;;;0.53;0.53;;;;;;;1.90;100.00;95371.97;5108015;28;20196;-84
2021/12/04 02:38:09;;;;;;;0.97;0.60;;;;;;;3.04;100.00;95367.34;5093313;28;20340;-83
2021/12/04 02:40:36;;;;;;;1.17;0.60;;;;;;;3.75;100.00;95363.84;5099062;28;20205;-83
2021/12/04 02:43:04;;;;;;;0.50;0.50;;;;;;;4.32;100.00;95349.59;5095567;28;20295;-83
2021/12/04 02:45:31;;;;;;;0.60;0.60;;;;;;;4.30;100.00;95350.84;5101654;28;20216;-83
2021/12/04 02:47:58;;;;;;;2.53;0.80;;;;;;;4.16;100.00;95350.09;5095964;28;20212;-83
2021/12/04 02:50:25;;;;;;;0.50;0.50;;;;;;;4.19;100.00;95339.78;5103124;28;20204;-83
2021/12/04 02:52:52;;;;;;;1.07;0.60;;;;;;;4.30;100.00;95330.28;5093917;28;20204;-83
2021/12/04 02:55:20;;;;;;;0.57;0.57;;;;;;;4.19;100.00;95329.09;5101556;28;20227;-83
2021/12/04 02:57:48;;;;;;;1.03;0.70;;;;;;;4.30;100.00;95319.59;5096613;28;20223;-83
2021/12/04 03:00:17;;;;;;;0.50;0.50;;;;;;;4.50;100.00;95314.94;5102534;28;20229;-83
2021/12/04 03:02:45;;;;;;;1.70;0.50;;;;;;;4.54;100.00;95326.81;5099577;28;20308;-83
2021/12/04 03:05:12;;;;;;;0.60;0.60;;;;;;;4.48;100.00;95308.16;5100606;28;20222;-82
2021/12/04 03:07:39;;;;;;;1.63;0.70;;;;;;;4.59;100.00;95309.31;5105942;28;20220;-83
2021/12/04 03:10:09;;;;;;;2.30;0.60;;;;;;;4.63;100.00;95297.94;5100247;28;20231;-83
2021/12/04 03:12:40;;;;;;;1.43;0.60;;;;;;;4.56;100.00;95297.19;5095799;28;20212;-83
2021/12/04 03:15:09;;;;;;;1.50;0.77;;;;;;;4.61;100.00;95299.19;5100637;28;20219;-83
2021/12/04 03:17:36;;;;;;;0.50;0.50;;;;;;;4.58;100.00;95289.78;5097696;28;20196;-83
2021/12/04 03:20:03;;;;;;;5.63;0.80;;;;;;;4.62;100.00;95274.91;5095777;28;20214;-83
2021/12/04 03:22:31;;;;;;;1.10;0.60;;;;;;;4.49;100.00;95262.50;5104096;28;20200;-83
2021/12/04 03:24:59;;;;;;;0.73;0.67;;;;;;;4.57;100.00;95266.75;5110747;27;20303;-83
2021/12/04 03:27:29;;;;;;;0.50;0.50;;;;;;;4.73;100.00;95254.66;5094390;28;20223;-83
2021/12/04 03:29:59;;;;;;;1.07;0.70;;;;;;;4.72;100.00;95247.69;5102908;28;20200;-83
2021/12/04 03:32:54;;;;;;;0.63;0.60;;;;;;;4.77;100.00;95239.81;5091125;28;20218;-83
2021/12/04 03:40:00;;;;;;;0.87;0.50;;;;;;;4.73;100.00;95233.28;5100074;28;20261;-83
2021/12/04 03:40:59;;;;;;;0.50;0.50;;;;;;;4.46;100.00;95216.66;5092206;28;20203;-82
2021/12/04 03:43:27;;;;;;;0.40;0.40;;;;;;;4.99;100.00;95202.75;5104527;28;20261;-82
2021/12/04 03:45:59;;;;;;;0.50;0.50;;;;;;;5.02;100.00;95205.78;5099013;28;20233;-82
2021/12/04 03:48:50;;;;;;;0.50;0.50;;;;;;;5.13;100.00;95213.06;5097402;28;20204;-83
2021/12/04 03:51:18;;;;;;;0.70;0.70;;;;;;;4.89;100.00;95193.41;5095117;28;20284;-83
2021/12/04 03:53:45;;;;;;;0.60;0.60;;;;;;;4.97;100.00;95196.81;5094483;28;20247;-82
2021/12/04 03:56:14;;;;;;;0.60;0.60;;;;;;;5.02;100.00;95191.63;5099550;28;20204;-82
2021/12/04 03:58:41;;;;;;;2.00;0.70;;;;;;;4.73;100.00;95187.81;5095234;28;20221;-83
2021/12/04 04:01:10;;;;;;;0.50;0.50;;;;;;;4.85;100.00;95194.06;5103457;28;20204;-82
2021/12/04 04:03:37;;;;;;;0.97;0.60;;;;;;;4.78;100.00;95194.13;5096865;28;20197;-82
2021/12/04 04:06:04;;;;;;;0.57;0.57;;;;;;;4.70;100.00;95177.56;5093875;28;20235;-83
2021/12/04 04:08:32;;;;;;;0.70;0.70;;;;;;;4.44;100.00;95184.00;5101765;28;20204;-83
2021/12/04 04:10:59;;;;;;;0.60;0.60;;;;;;;4.37;100.00;95165.34;5098193;28;20204;-82
2021/12/04 04:13:26;;;;;;;1.60;0.70;;;;;;;4.46;100.00;95184.59;5102532;28;20204;-82
2021/12/04 04:15:53;;;;;;;0.77;0.70;;;;;;;4.28;100.00;95181.88;5096629;28;20193;-82
2021/12/04 04:18:22;;;;;;;0.50;0.50;;;;;;;4.19;100.00;95184.03;5091375;28;20208;-82
2021/12/04 04:20:50;;;;;;;0.83;0.77;;;;;;;4.12;100.00;95164.56;5103238;28;20210;-82
2021/12/04 04:23:17;;;;;;;1.07;0.60;;;;;;;4.07;100.00;95169.75;5098974;28;20300;-83
2021/12/04 04:25:44;;;;;;;1.87;0.67;;;;;;;4.14;100.00;95159.81;5093258;28;20209;-83
2021/12/04 04:28:11;;;;;;;2.37;0.80;;;;;;;4.13;100.00;95160.84;5102266;28;20235;-82
2021/12/04 04:30:38;;;;;;;1.60;0.60;;;;;;;4.07;100.00;95170.56;5099205;28;20195;-82
2021/12/04 04:33:07;;;;;;;2.30;0.60;;;;;;;4.08;100.00;95163.38;5098206;28;20216;-82
2021/12/04 04:35:36;;;;;;;0.67;0.67;;;;;;;4.11;100.00;95160.25;5098266;28;20204;-82
2021/12/04 04:38:13;;;;;;;1.03;0.70;;;;;;;4.00;100.00;95150.28;5094552;28;20273;-83
2021/12/04 04:57:42;;;;;;;0.50;0.50;;;;;;;3.68;100.00;95128.97;5092777;28;20212;-83
2021/12/04 05:00:23;;;;;;;1.00;0.70;;;;;;;3.90;100.00;95133.94;5105811;28;20239;-83
2021/12/04 05:11:09;;;;;;;1.20;0.70;;;;;;;3.75;100.00;95112.91;5100681;28;20224;-83
2021/12/04 05:13:38;;;;;;;3.03;0.70;;;;;;;3.79;100.00;95130.13;5099500;28;20231;-83
2021/12/04 05:16:13;;;;;;;1.30;0.50;;;;;;;3.80;100.00;95121.91;5100358;28;20205;-83
2021/12/04 05:18:49;;;;;;;0.67;0.67;;;;;;;3.91;100.00;95116.91;5098615;28;20298;-83
2021/12/04 05:21:17;;;;;;;1.80;0.70;;;;;;;3.82;100.00;95118.22;5097672;28;20197;-83
2021/12/04 05:23:48;;;;;;;1.63;0.70;;;;;;;3.79;100.00;95108.78;5098917;28;20203;-82
2021/12/04 05:26:18;;;;;;;0.70;0.70;;;;;;;4.10;100.00;95110.53;5105143;28;20302;-82
2021/12/04 05:28:46;;;;;;;0.53;0.53;;;;;;;4.29;100.00;95109.53;5098896;28;20235;-82
2021/12/04 05:31:14;;;;;;;0.70;0.60;;;;;;;4.26;100.00;95112.63;5097026;28;20208;-82
2021/12/04 05:33:41;;;;;;;0.57;0.57;;;;;;;4.17;100.00;95096.06;5096590;28;20201;-82
2021/12/04 05:36:09;;;;;;;1.20;0.80;;;;;;;4.16;100.00;95082.97;5104204;28;20207;-82
2021/12/04 05:38:39;;;;;;;0.80;0.80;;;;;;;4.26;100.00;95088.59;5101880;28;20290;-82
2021/12/04 05:41:08;;;;;;;2.33;0.80;;;;;;;4.27;100.00;95095.56;5106376;28;20197;-82
2021/12/04 05:43:36;;;;;;;1.23;0.80;;;;;;;4.32;100.00;95071.69;5098334;28;20220;-82
2021/12/04 05:46:10;;;;;;;0.60;0.60;;;;;;;4.34;100.00;95077.59;5099714;28;20231;-82
2021/12/04 05:48:44;;;;;;;0.60;0.60;;;;;;;4.36;100.00;95085.41;5100416;28;20208;-81
2021/12/04 05:54:07;;;;;;;0.70;0.70;;;;;;;4.56;100.00;95078.00;5062008;28;20257;-82
2021/12/04 05:56:36;;;;;;;0.83;0.70;;;;;;;4.52;100.00;95074.13;5102310;28;20201;-82
2021/12/04 05:59:05;;;;;;;2.63;0.70;;;;;;;4.52;100.00;95066.91;5097594;28;20205;-82
2021/12/04 06:01:33;;;;;;;2.13;1.00;;;;;;;4.57;100.00;95074.28;5098656;28;20211;-82
2021/12/04 06:04:00;;;;;;;0.60;0.60;;;;;;;4.53;100.00;95065.88;5092712;28;20243;-82
2021/12/04 06:06:29;;;;;;;0.67;0.67;;;;;;;4.46;100.00;95061.66;5097924;28;20216;-82
2021/12/04 06:08:56;;;;;;;2.00;0.80;;;;;;;4.48;100.00;95068.41;5098932;28;20204;-83
2021/12/04 06:11:23;;;;;;;1.10;0.87;;;;;;;4.59;100.00;95071.38;5101525;28;20269;-82
2021/12/04 06:13:52;;;;;;;0.80;0.80;;;;;;;4.69;100.00;95063.63;5100959;28;20232;-82
2021/12/04 06:16:19;;;;;;;0.80;0.80;;;;;;;4.80;100.00;95073.56;5101715;28;20200;-82
2021/12/04 06:18:47;;;;;;;0.90;0.90;;;;;;;4.77;100.00;95071.34;5096346;28;20223;-82
2021/12/04 06:24:00;;;;;;;0.67;0.67;;;;;;;4.74;100.00;95075.31;5091754;28;20205;-82
2021/12/04 06:26:27;;;;;;;0.80;0.80;;;;;;;4.72;100.00;95065.88;5099034;28;20204;-82
2021/12/04 06:28:55;;;;;;;1.40;0.70;;;;;;;4.76;100.00;95067.88;5095218;28;20197;-82
2021/12/04 06:31:22;;;;;;;1.57;0.80;;;;;;;4.89;100.00;95062.34;5095589;28;20197;-82
2021/12/04 06:33:49;;;;;;;0.70;0.70;;;;;;;4.92;100.00;95056.56;5100921;27;20212;-82
2021/12/04 06:36:16;;;;;;;0.73;0.73;;;;;;;5.01;100.00;95069.59;5098781;28;20283;-82
2021/12/04 06:38:44;;;;;;;0.70;0.70;;;;;;;4.97;100.00;95066.56;5104703;28;20211;-82
2021/12/04 06:41:12;;;;;;;1.53;0.67;;;;;;;5.04;100.00;95053.91;5103569;28;20213;-82
2021/12/04 06:43:44;;;;;;;1.10;0.80;;;;;;;5.15;100.00;95050.47;5098535;28;20204;-82
2021/12/04 06:46:13;;;;;;;1.10;0.60;;;;;;;5.31;100.00;95063.19;5099411;28;20231;-82
2021/12/04 06:48:42;;;;;;;0.67;0.60;;;;;;;5.23;100.00;95060.84;5098418;28;20346;-84
2021/12/04 06:51:19;;;;;;;0.90;0.60;;;;;;;5.12;100.00;95056.25;5106304;28;20221;-83
2021/12/04 06:53:50;;;;;;;0.67;0.67;;;;;;;5.00;100.00;95058.09;5106624;28;20196;-83
2021/12/04 06:56:18;;;;;;;0.63;0.63;;;;;;;4.90;100.00;95073.84;5097980;28;20201;-82
2021/12/04 06:58:45;;;;;;;1.80;0.80;;;;;;;4.92;100.00;95064.56;5094735;28;20209;-82
2021/12/04 07:01:14;;;;;;;1.67;0.80;;;;;;;4.82;100.00;95066.97;5098084;28;20212;-83
2021/12/04 07:03:41;;;;;;;0.90;0.70;;;;;;;4.78;100.00;95064.94;5096215;28;20211;-83
2021/12/04 07:06:09;;;;;;;1.00;0.80;;;;;;;4.68;100.00;95052.13;5105589;28;20236;-83
2021/12/04 07:08:36;;;;;;;0.90;0.80;;;;;;;4.62;100.00;95054.88;5102871;28;20272;-83
2021/12/04 07:11:04;;;;;;;6.67;3.00;;;;;;;4.62;100.00;95065.56;5101255;28;20209;-83
2021/12/04 07:13:32;;;;;;;2.67;0.60;;;;;;;4.54;100.00;95064.84;5097873;28;20291;-83
2021/12/04 07:16:03;;;;;;;1.00;0.80;;;;;;;4.46;100.00;95069.66;5100257;28;20258;-83
2021/12/04 07:18:32;;;;;;;1.37;0.80;;;;;;;4.36;100.00;95075.53;5094726;28;20216;-83
2021/12/04 07:21:00;;;;;;;0.60;0.60;;;;;;;4.42;100.00;95065.81;5102338;28;20217;-83
2021/12/04 07:23:27;;;;;;;0.97;0.63;;;;;;;4.29;100.00;95069.44;5099278;28;20235;-83
2021/12/04 07:25:54;;;;;;;3.10;1.30;;;;;;;4.27;100.00;95068.84;5100150;28;20300;-83
2021/12/04 07:28:22;;;;;;;2.13;1.70;;;;;;;4.24;100.00;95063.97;5095785;28;20236;-83
2021/12/04 07:30:49;;;;;;;2.37;1.80;;;;;;;4.18;100.00;95065.66;5092652;28;20203;-83
2021/12/04 07:33:16;;;;;;;3.00;2.50;;;;;;;4.23;100.00;95057.00;5099781;28;20319;-83
2021/12/04 07:35:45;;;;;;;4.23;3.10;;;;;;;4.19;100.00;95061.13;5099778;28;20200;-83
2021/12/04 07:38:14;;;;;;;2.33;2.10;;;;;;;4.19;100.00;95061.94;5097180;28;20318;-83
2021/12/04 07:40:41;;;;;;;2.47;2.10;;;;;;;4.18;100.00;95064.84;5096716;28;20258;-83
2021/12/04 07:43:08;;;;;;;3.63;3.07;;;;;;;4.11;100.00;95070.25;5121425;27;20204;-83
2021/12/04 07:45:35;;;;;;;11.40;9.00;;;;;;;4.15;100.00;95074.13;5102536;28;20228;-83
2021/12/04 07:48:03;;;;;;;5.27;2.70;;;;;;;4.09;100.00;95072.31;5094103;28;20209;-83
2021/12/04 07:50:30;;;;;;;2.57;1.90;;;;;;;4.09;100.00;95071.50;5094624;28;20197;-83
2021/12/04 07:52:58;;;;;;;1.90;1.00;;;;;;;4.01;100.00;95061.94;5093660;28;20205;-83
2021/12/04 07:55:27;;;;;;;7.83;3.37;;;;;;;4.05;100.00;95075.66;5108853;28;20208;-83
2021/12/04 07:57:54;;;;;;;4.97;2.73;;;;;;;4.02;100.00;95066.22;5091772;28;20232;-82
2021/12/04 08:00:24;;;;;;;2.20;1.60;;;;;;;4.09;100.00;95061.63;5098160;28;20255;-83
2021/12/04 08:02:51;;;;;;;3.07;2.30;;;;;;;4.07;100.00;95054.91;5097677;28;20204;-82
2021/12/04 08:05:19;;;;;;;2.63;1.70;;;;;;;4.10;100.00;95063.28;5098649;28;20227;-82
2021/12/04 08:07:47;;;;;;;2.07;1.10;;;;;;;4.12;100.00;95055.88;5105752;28;20222;-82
2021/12/04 08:10:18;;;;;;;1.57;1.23;;;;;;;4.24;100.00;95063.97;5103728;28;20197;-82
2021/12/04 08:12:45;;;;;;;4.57;1.40;;;;;;;4.13;100.00;95057.50;5097875;28;20228;-83
2021/12/04 08:15:13;;;;;;;3.70;1.80;;;;;;;4.13;100.00;95068.19;5093911;28;20214;-83
2021/12/04 08:17:42;;;;;;;5.37;1.70;;;;;;;4.15;100.00;95062.63;5092087;28;20214;-83
2021/12/04 08:20:11;;;;;;;1.00;0.93;;;;;;;4.21;100.00;95058.25;5104818;28;20223;-83
2021/12/04 08:22:40;;;;;;;5.20;2.13;;;;;;;4.16;100.00;95054.41;5099462;28;20207;-82
2021/12/04 08:25:09;;;;;;;1.63;1.53;;;;;;;4.19;100.00;95056.59;5090537;28;20213;-83
2021/12/04 08:27:38;;;;;;;6.17;3.00;;;;;;;4.23;100.00;95057.00;5096055;28;20220;-83
2021/12/04 08:30:08;;;;;;;8.47;4.83;;;;;;;4.29;100.00;95061.44;5101631;28;20200;-83
2021/12/04 08:32:36;;;;;;;3.63;1.83;;;;;;;4.34;100.00;95052.78;5106107;28;20208;-84
2021/12/04 08:35:03;;;;;;;3.63;1.90;;;;;;;4.38;100.00;95044.06;5097173;28;20279;-83
2021/12/04 08:37:30;;;;;;;2.40;2.10;;;;;;;4.43;100.00;95038.84;5102833;28;20260;-83
2021/12/04 08:39:57;;;;;;;2.43;2.20;;;;;;;4.47;100.00;95026.69;5105318;28;20228;-83
2021/12/04 08:42:26;;;;;;;4.37;1.50;;;;;;;4.54;100.00;95032.75;5103147;28;20223;-83
2021/12/04 08:44:54;;;;;;;3.53;2.50;;;;;;;4.56;100.00;95046.72;5093299;28;20219;-83
2021/12/04 08:47:21;;;;;;;3.87;3.30;;;;;;;4.46;100.00;95045.63;5094735;28;20288;-83
2021/12/04 08:49:48;;;;;;;5.80;3.73;;;;;;;4.45;100.00;95042.13;5098474;28;20204;-83
2021/12/04 08:52:18;;;;;;;4.23;2.67;;;;;;;4.49;100.00;95040.66;5094710;28;20291;-83
2021/12/04 08:54:46;;;;;;;4.33;2.90;;;;;;;4.51;100.00;95040.41;5089870;28;20200;-83
2021/12/04 08:57:13;;;;;;;3.23;2.17;;;;;;;4.55;100.00;95028.22;5097991;28;20222;-83
2021/12/04 08:59:40;;;;;;;8.53;4.07;;;;;;;4.60;100.00;95032.91;5100909;28;20239;-83
2021/12/04 09:02:10;;;;;;;3.53;2.77;;;;;;;4.61;100.00;95031.84;5090193;28;20201;-83
2021/12/04 09:04:39;;;;;;;4.13;2.30;;;;;;;4.63;100.00;95019.09;5099669;28;20211;-83
2021/12/04 09:07:07;;;;;;;4.33;2.30;;;;;;;4.70;100.00;95028.66;5093841;28;20206;-83
2021/12/04 09:09:38;;;;;;;4.33;2.90;;;;;;;4.68;100.00;95021.91;5102514;28;20235;-85
2021/12/04 09:12:08;;;;;;;4.00;2.70;;;;;;;4.69;100.00;95024.34;5093582;28;20246;-85
2021/12/04 09:14:37;;;;;;;7.00;3.30;;;;;;;4.73;100.00;95019.38;5095648;28;20250;-86
2021/12/04 09:17:11;;;;;;;7.10;4.93;;;;;;;4.73;100.00;95011.34;5092755;28;20291;-86
2021/12/04 09:19:39;;;;;;;10.73;6.23;;;;;;;4.73;100.00;95003.31;5098475;28;20224;-87
2021/12/04 09:22:07;;;;;;;8.00;7.13;;;;;;;4.73;100.00;95003.31;5093322;28;20218;-87
2021/12/04 09:24:39;;;;;;;7.63;6.70;;;;;;;4.78;100.00;95004.28;5097689;28;20253;-87
2021/12/04 09:27:13;;;;;;;5.47;3.63;;;;;;;4.84;100.00;94994.53;5097940;28;20233;-87
2021/12/04 09:30:03;;;;;;;5.60;2.50;;;;;;;4.85;100.00;94977.44;5089370;28;20211;-86
2021/12/04 09:35:29;;;;;;;5.23;3.40;;;;;;;4.86;100.00;94982.56;5099217;28;20200;-85
2021/12/04 10:00:19;;;;;;;6.23;3.67;;;;;;;5.40;100.00;94912.97;5107896;28;20214;-85
2021/12/04 10:03:07;;;;;;;7.17;4.47;;;;;;;5.53;100.00;94923.44;5096150;28;20211;-83
2021/12/04 10:06:07;;;;;;;5.87;3.40;;;;;;;5.60;100.00;94918.78;5104388;28;20201;-84
2021/12/04 10:11:47;;;;;;;6.93;2.60;;;;;;;5.63;100.00;94902.22;5093254;28;20208;-85
2021/12/04 10:20:09;;;;;;;6.37;2.97;;;;;;;5.71;100.00;94883.94;5091886;27;20200;-86
2021/12/04 10:23:06;;;;;;;6.80;2.93;;;;;;;5.72;100.00;94890.94;5093200;28;20228;-84
2021/12/04 10:33:52;;;;;;;5.67;2.40;;;;;;;5.85;100.00;94879.16;5100354;28;20235;-85
2021/12/04 10:36:29;;;;;;;5.70;2.93;;;;;;;5.85;100.00;94873.81;5101700;28;20262;-85
2021/12/04 10:38:59;;;;;;;8.07;2.90;;;;;;;5.85;100.00;94865.78;5092921;28;20227;-86
2021/12/04 10:41:31;;;;;;;5.30;2.33;;;;;;;5.87;100.00;94865.53;5091608;28;20221;-90
2021/12/04 10:44:11;;;;;;;6.47;2.27;;;;;;;5.90;100.00;94857.03;5108387;28;20284;-87
2021/12/04 10:46:53;;;;;;;4.17;2.10;;;;;;;5.89;100.00;94850.06;5101356;28;20204;-88
2021/12/04 10:49:36;;;;;;;2.53;1.50;;;;;;;5.93;100.00;94840.50;5102737;28;20212;-88
2021/12/04 10:52:05;;;;;;;1.77;1.40;;;;;;;5.94;100.00;94829.56;5091713;28;20360;-88
2021/12/04 10:54:39;;;;;;;1.90;1.10;;;;;;;6.00;100.00;94825.09;5105245;28;20228;-87
2021/12/04 11:00:03;;;;;;;2.60;1.37;;;;;;;6.04;100.00;94816.34;5058202;28;20204;-87
2021/12/04 11:02:39;;;;;;;3.27;1.93;;;;;;;6.07;100.00;94812.38;5098798;28;20312;-87
2021/12/04 11:05:38;;;;;;;2.47;1.87;;;;;;;6.03;100.00;94801.34;5107582;27;20199;-88
2021/12/04 11:19:50;;;;;;;2.33;1.20;;;;;;;6.22;100.00;94785.03;5092866;28;20235;-87
2021/12/04 11:22:26;;;;;;;1.90;1.20;;;;;;;6.35;100.00;94792.78;5088678;28;20297;-87
2021/12/04 11:36:38;;;;;;;1.00;0.90;;;;;;;6.55;100.00;94768.97;5103175;28;20304;-82
2021/12/04 11:42:00;;;;;;;4.13;2.63;;;;;;;6.47;100.00;94766.69;5090054;28;20217;-87
2021/12/04 11:44:34;;;;;;;1.60;1.00;;;;;;;6.52;100.00;94750.72;5096613;28;20232;-89
2021/12/04 11:47:01;;;;;;;1.20;0.83;;;;;;;6.52;100.00;94766.81;5096516;28;20216;-90
2021/12/04 11:49:33;;;;;;;0.83;0.80;;;;;;;6.55;100.00;94776.25;5089351;28;20228;-87
2021/12/04 11:52:07;;;;;;;2.27;1.77;;;;;;;6.59;100.00;94778.16;5094959;28;20211;-87
2021/12/04 11:54:45;;;;;;;4.47;3.10;;;;;;;6.63;100.00;94765.09;5096415;28;20227;-87
2021/12/04 11:57:14;;;;;;;86.87;42.53;;;;;;;6.77;100.00;94758.34;5099460;28;20243;-85
2021/12/04 11:59:48;;;;;;;38.50;21.40;;;;;;;6.82;100.00;94761.91;5097283;28;20299;-85
2021/12/04 12:02:21;;;;;;;2.10;1.43;;;;;;;6.89;100.00;94755.59;5098990;28;20302;-84
2021/12/04 12:04:52;;;;;;;7.27;4.50;;;;;;;7.02;100.00;94768.63;5090893;28;20200;-84
2021/12/04 12:07:21;;;;;;;5.00;3.07;;;;;;;7.25;100.00;94770.28;5096728;28;20288;-85
2021/12/04 12:09:50;;;;;;;17.40;8.43;;;;;;;7.29;100.00;94771.44;5092159;28;20211;-86
2021/12/04 12:12:18;;;;;;;2.23;1.83;;;;;;;7.22;100.00;94767.06;5100294;28;20204;-87
2021/12/04 12:14:50;;;;;;;1.43;1.00;;;;;;;7.18;100.00;94771.28;5099251;28;20228;-85
2021/12/04 12:17:29;;;;;;;1.80;1.30;;;;;;;7.12;100.00;94771.47;5093964;28;20303;-87
2021/12/04 12:20:01;;;;;;;2.13;1.60;;;;;;;7.00;100.00;94763.50;5101632;28;20280;-91
2021/12/04 12:22:47;;;;;;;1.77;1.17;;;;;;;6.86;100.00;94770.28;5096034;28;20221;-87
2021/12/04 12:25:28;;;;;;;0.70;0.70;;;;;;;6.76;100.00;94765.56;5097803;28;20208;-91
2021/12/04 12:33:37;;;;;;;1.40;1.03;;;;;;;6.59;100.00;94767.44;5099163;28;20336;-93
2021/12/04 12:36:09;;;;;;;3.53;1.87;;;;;;;6.60;100.00;94781.66;5093665;28;20204;-93
2021/12/04 12:38:51;;;;;;;4.53;2.30;;;;;;;6.47;100.00;94769.38;5097973;28;20234;-93
2021/12/04 12:41:25;;;;;;;2.80;2.20;;;;;;;6.51;100.00;94775.09;5099592;28;20311;-93
2021/12/04 12:44:04;;;;;;;4.27;1.50;;;;;;;6.39;100.00;94767.09;5103858;28;20208;-93
2021/12/04 12:46:42;;;;;;;2.47;1.80;;;;;;;6.35;100.00;94776.69;5095607;28;20204;-92
2021/12/04 12:49:25;;;;;;;4.37;2.70;;;;;;;6.31;100.00;94797.81;5094887;28;20300;-93
2021/12/04 12:51:57;;;;;;;4.33;3.10;;;;;;;6.23;100.00;94798.19;5097782;28;20254;-94
2021/12/04 12:54:29;;;;;;;5.00;3.20;;;;;;;6.21;100.00;94802.97;5094110;28;20212;-92
2021/12/04 12:57:03;;;;;;;3.97;3.40;;;;;;;6.14;100.00;94807.66;5099643;28;20207;-92
2021/12/04 12:59:41;;;;;;;3.40;2.90;;;;;;;6.07;100.00;94807.81;5100230;28;20217;-92
2021/12/04 13:13:54;;;;;;;3.80;2.90;;;;;;;5.87;100.00;94828.81;5102594;28;20200;-92
2021/12/04 13:16:29;;;;;;;4.43;3.03;;;;;;;5.86;100.00;94827.22;5096937;28;20250;-93
2021/12/04 13:19:08;;;;;;;5.33;3.30;;;;;;;5.83;100.00;94822.34;5095849;28;20202;-93
2021/12/04 13:21:38;;;;;;;4.27;2.87;;;;;;;5.82;100.00;94831.41;5106816;28;20218;-94
2021/12/04 13:24:10;;;;;;;5.40;3.33;;;;;;;5.82;100.00;94836.78;5077628;28;20211;-93
2021/12/04 13:26:40;;;;;;;4.87;3.40;;;;;;;5.86;100.00;94858.56;5098980;28;20211;-93
2021/12/04 13:29:09;;;;;;;7.10;3.37;;;;;;;5.82;100.00;94852.03;5095913;28;20228;-93
2021/12/04 13:31:38;;;;;;;4.70;2.77;;;;;;;5.83;100.00;94859.84;5105613;28;20212;-93
2021/12/04 13:34:08;;;;;;;3.97;2.83;;;;;;;5.77;100.00;94850.06;5102615;28;20215;-95
2021/12/04 13:36:38;;;;;;;6.23;3.57;;;;;;;5.79;100.00;94857.84;5098718;28;20204;-93
2021/12/04 13:39:08;;;;;;;5.70;3.50;;;;;;;5.78;100.00;94846.34;5096478;28;20216;-93
2021/12/04 13:41:39;;;;;;;4.63;3.30;;;;;;;5.80;100.00;94846.91;5093957;28;20287;-87
2021/12/04 13:44:09;;;;;;;4.70;3.17;;;;;;;5.82;100.00;94844.81;5101769;28;20294;-86
2021/12/04 13:46:41;;;;;;;5.43;3.50;;;;;;;5.80;100.00;94838.88;5096300;28;20205;-89
2021/12/04 13:49:19;;;;;;;5.10;2.90;;;;;;;5.82;100.00;94841.31;5103349;28;20283;-91
2021/12/04 13:52:02;;;;;;;3.83;2.00;;;;;;;5.80;100.00;94843.41;5099487;28;20192;-89
2021/12/04 13:54:50;;;;;;;5.20;2.10;;;;;;;5.81;100.00;94845.03;5099753;28;20204;-88
2021/12/04 13:57:19;;;;;;;2.53;1.83;;;;;;;5.77;100.00;94836.69;5096977;28;20200;-92
2021/12/04 13:59:46;;;;;;;4.20;3.10;;;;;;;5.73;100.00;94838.19;5100867;28;20211;-85